createdAt,value
2023-03-05T00:00:07.746Z,6.79
2023-03-05T00:01:07.768Z,6.86
2023-03-05T00:02:07.793Z,7.08
2023-03-05T00:03:07.745Z,6.98
2023-03-05T00:04:07.748Z,7.02
2023-03-05T00:05:07.704Z,6.94
2023-03-05T00:06:07.697Z,6.99
2023-03-05T00:07:07.722Z,6.86
2023-03-05T00:08:07.713Z,6.76
2023-03-05T00:09:07.700Z,6.68
2023-03-05T00:10:07.696Z,6.81
2023-03-05T00:11:07.676Z,6.90
2023-03-05T00:12:07.709Z,6.83
2023-03-05T00:13:07.669Z,6.79
2023-03-05T00:14:07.647Z,6.91
2023-03-05T00:15:07.657Z,7.02
2023-03-05T00:16:07.750Z,6.87
2023-03-05T00:17:07.656Z,6.95
2023-03-05T00:18:07.623Z,6.91
2023-03-05T00:19:07.645Z,7.01
2023-03-05T00:20:07.625Z,6.94
2023-03-05T00:21:07.612Z,6.98
2023-03-05T00:22:07.635Z,6.71
2023-03-05T00:23:07.599Z,6.72
2023-03-05T00:24:07.604Z,6.77
2023-03-05T00:25:07.655Z,6.91
2023-03-05T00:26:07.631Z,6.81
2023-03-05T00:27:07.585Z,6.84
2023-03-05T00:28:07.600Z,6.76
2023-03-05T00:29:08.157Z,6.86
2023-03-05T00:30:07.570Z,6.81
2023-03-05T00:31:07.595Z,6.86
2023-03-05T00:32:07.626Z,6.79
2023-03-05T00:33:07.552Z,6.80
2023-03-05T00:34:07.550Z,6.84
2023-03-05T00:35:07.530Z,6.87
2023-03-05T00:36:07.560Z,6.77
2023-03-05T00:37:07.579Z,6.65
2023-03-05T00:38:07.541Z,6.69
2023-03-05T00:39:07.505Z,6.72
2023-03-05T00:40:07.649Z,6.65
2023-03-05T00:41:07.487Z,6.50
2023-03-05T00:42:07.479Z,6.56
2023-03-05T00:43:07.537Z,6.59
2023-03-05T00:44:07.477Z,6.58
2023-03-05T00:45:07.476Z,6.76
2023-03-05T00:46:07.562Z,6.65
2023-03-05T00:47:07.461Z,6.51
2023-03-05T00:48:07.466Z,6.32
2023-03-05T00:49:07.505Z,6.29
2023-03-05T00:50:07.456Z,6.14
2023-03-05T00:51:07.419Z,6.10
2023-03-05T00:52:07.468Z,6.06
2023-03-05T00:53:07.441Z,6.00
2023-03-05T00:54:07.472Z,6.19
2023-03-05T00:55:07.462Z,6.03
2023-03-05T00:56:07.390Z,5.95
2023-03-05T00:57:07.411Z,6.07
2023-03-05T00:58:07.382Z,6.36
2023-03-05T00:59:07.426Z,6.18
2023-03-05T01:00:07.364Z,6.28
2023-03-05T01:01:07.353Z,6.19
2023-03-05T01:02:07.362Z,6.16
2023-03-05T01:03:07.334Z,6.16
2023-03-05T01:04:08.357Z,6.01
2023-03-05T01:05:07.404Z,6.18
2023-03-05T01:06:07.314Z,6.19
2023-03-05T01:07:07.359Z,6.30
2023-03-05T01:08:07.324Z,6.22
2023-03-05T01:09:07.294Z,6.35
2023-03-05T01:10:07.311Z,6.44
2023-03-05T01:11:07.284Z,6.46
2023-03-05T01:12:07.271Z,6.32
2023-03-05T01:13:07.298Z,6.29
2023-03-05T01:14:07.260Z,6.48
2023-03-05T01:15:07.277Z,5.95
2023-03-05T01:16:07.270Z,5.95
2023-03-05T01:17:07.235Z,5.88
2023-03-05T01:18:07.236Z,6.03
2023-03-05T01:19:07.227Z,6.07
2023-03-05T01:20:07.233Z,6.13
2023-03-05T01:21:07.242Z,6.21
2023-03-05T01:22:07.203Z,6.13
2023-03-05T01:23:07.187Z,6.28
2023-03-05T01:24:07.214Z,6.33
2023-03-05T01:25:07.199Z,6.18
2023-03-05T01:26:07.173Z,6.21
2023-03-05T01:27:07.185Z,6.28
2023-03-05T01:28:07.169Z,6.30
2023-03-05T01:29:07.157Z,6.28
2023-03-05T01:30:07.200Z,6.26
2023-03-05T01:31:07.168Z,6.35
2023-03-05T01:32:07.186Z,6.36
2023-03-05T01:33:07.184Z,6.33
2023-03-05T01:34:07.117Z,6.21
2023-03-05T01:35:07.137Z,6.22
2023-03-05T01:36:07.185Z,6.16
2023-03-05T01:37:07.154Z,6.16
2023-03-05T01:38:07.671Z,6.38
2023-03-05T01:39:07.124Z,6.41
2023-03-05T01:40:07.091Z,6.21
2023-03-05T01:41:07.084Z,6.16
2023-03-05T01:42:07.130Z,6.13
2023-03-05T01:43:07.073Z,6.13
2023-03-05T01:44:07.071Z,6.18
2023-03-05T01:45:07.092Z,6.22
2023-03-05T01:46:07.248Z,6.26
2023-03-05T01:47:07.053Z,6.44
2023-03-05T01:48:07.069Z,6.38
2023-03-05T01:49:07.051Z,6.44
2023-03-05T01:50:07.042Z,6.26
2023-03-05T01:51:07.034Z,6.30
2023-03-05T01:52:07.129Z,6.41
2023-03-05T01:53:07.196Z,6.29
2023-03-05T01:54:07.024Z,6.14
2023-03-05T01:55:07.028Z,6.11
2023-03-05T01:56:06.986Z,5.92
2023-03-05T01:57:06.981Z,5.92
2023-03-05T01:58:07.009Z,5.81
2023-03-05T01:59:07.003Z,5.91
2023-03-05T02:00:06.987Z,5.86
2023-03-05T02:01:07.045Z,5.92
2023-03-05T02:02:06.953Z,6.00
2023-03-05T02:03:06.942Z,5.82
2023-03-05T02:04:07.044Z,5.91
2023-03-05T02:05:06.927Z,5.78
2023-03-05T02:06:07.928Z,5.67
2023-03-05T02:07:06.946Z,5.70
2023-03-05T02:08:06.912Z,5.68
2023-03-05T02:09:06.920Z,5.70
2023-03-05T02:10:06.908Z,5.75
2023-03-05T02:11:07.895Z,5.77
2023-03-05T02:12:06.887Z,5.98
2023-03-05T02:13:06.925Z,5.86
2023-03-05T02:14:09.044Z,5.77
2023-03-05T02:15:06.879Z,5.83
2023-03-05T02:16:06.932Z,5.86
2023-03-05T02:17:06.868Z,5.82
2023-03-05T02:18:06.993Z,5.75
2023-03-05T02:19:06.896Z,5.82
2023-03-05T02:20:06.847Z,5.93
2023-03-05T02:21:06.837Z,5.91
2023-03-05T02:22:06.836Z,5.93
2023-03-05T02:23:06.820Z,5.98
2023-03-05T02:24:06.834Z,5.85
2023-03-05T02:25:06.843Z,5.88
2023-03-05T02:26:06.956Z,5.86
2023-03-05T02:27:06.810Z,5.83
2023-03-05T02:28:06.804Z,5.86
2023-03-05T02:29:06.796Z,5.78
2023-03-05T02:30:06.816Z,5.86
2023-03-05T02:31:06.791Z,5.56
2023-03-05T02:32:06.906Z,5.64
2023-03-05T02:33:06.767Z,5.53
2023-03-05T02:34:06.951Z,5.48
2023-03-05T02:35:06.758Z,5.52
2023-03-05T02:36:06.776Z,5.59
2023-03-05T02:37:06.784Z,5.52
2023-03-05T02:38:06.749Z,5.60
2023-03-05T02:39:06.738Z,5.59
2023-03-05T02:40:06.760Z,5.67
2023-03-05T02:41:06.724Z,5.68
2023-03-05T02:42:06.752Z,5.75
2023-03-05T02:43:06.748Z,5.82
2023-03-05T02:44:06.718Z,5.81
2023-03-05T02:45:06.713Z,5.81
2023-03-05T02:46:06.754Z,5.75
2023-03-05T02:47:06.693Z,5.78
2023-03-05T02:48:06.707Z,5.77
2023-03-05T02:49:06.728Z,5.82
2023-03-05T02:50:06.682Z,5.91
2023-03-05T02:51:06.676Z,5.88
2023-03-05T02:52:06.799Z,5.92
2023-03-05T02:53:06.687Z,5.86
2023-03-05T02:54:06.655Z,5.89
2023-03-05T02:55:06.669Z,5.78
2023-03-05T02:56:06.638Z,5.66
2023-03-05T02:57:06.687Z,5.73
2023-03-05T02:58:06.660Z,5.75
2023-03-05T02:59:06.625Z,5.73
2023-03-05T03:00:06.684Z,5.70
2023-03-05T03:01:06.693Z,5.56
2023-03-05T03:02:06.604Z,5.55
2023-03-05T03:03:06.668Z,5.55
2023-03-05T03:04:06.622Z,5.43
2023-03-05T03:05:06.599Z,5.41
2023-03-05T03:06:06.582Z,5.45
2023-03-05T03:07:06.605Z,5.37
2023-03-05T03:08:06.562Z,5.45
2023-03-05T03:09:06.584Z,5.38
2023-03-05T03:10:06.576Z,5.48
2023-03-05T03:11:06.550Z,5.53
2023-03-05T03:12:06.536Z,5.57
2023-03-05T03:13:06.557Z,5.64
2023-03-05T03:14:06.550Z,5.45
2023-03-05T03:15:06.524Z,5.49
2023-03-05T03:16:06.559Z,5.43
2023-03-05T03:17:06.556Z,5.56
2023-03-05T03:18:07.499Z,5.57
2023-03-05T03:19:06.547Z,5.37
2023-03-05T03:20:06.513Z,5.41
2023-03-05T03:21:06.504Z,5.32
2023-03-05T03:22:06.548Z,5.37
2023-03-05T03:23:06.478Z,5.52
2023-03-05T03:24:06.474Z,5.53
2023-03-05T03:25:06.499Z,5.49
2023-03-05T03:26:06.472Z,5.34
2023-03-05T03:27:06.464Z,5.53
2023-03-05T03:28:06.496Z,5.52
2023-03-05T03:29:06.453Z,5.56
2023-03-05T03:30:06.558Z,5.45
2023-03-05T03:31:06.611Z,5.46
2023-03-05T03:32:06.452Z,5.52
2023-03-05T03:33:06.479Z,5.53
2023-03-05T03:34:06.435Z,5.56
2023-03-05T03:35:06.425Z,5.49
2023-03-05T03:36:06.465Z,5.68
2023-03-05T03:37:06.439Z,5.55
2023-03-05T03:38:06.401Z,5.40
2023-03-05T03:39:06.397Z,5.34
2023-03-05T03:40:06.412Z,5.31
2023-03-05T03:41:06.386Z,5.35
2023-03-05T03:42:06.384Z,5.59
2023-03-05T03:43:06.390Z,5.59
2023-03-05T03:44:06.368Z,5.59
2023-03-05T03:45:06.358Z,5.52
2023-03-05T03:46:06.421Z,5.49
2023-03-05T03:47:06.392Z,5.37
2023-03-05T03:48:06.346Z,5.41
2023-03-05T03:49:06.343Z,5.32
2023-03-05T03:50:06.335Z,5.45
2023-03-05T03:51:06.336Z,5.38
2023-03-05T03:52:06.327Z,5.45
2023-03-05T03:53:06.319Z,5.35
2023-03-05T03:54:06.329Z,5.31
2023-03-05T03:55:06.309Z,5.40
2023-03-05T03:56:06.294Z,5.46
2023-03-05T03:57:06.302Z,5.49
2023-03-05T03:58:06.332Z,5.52
2023-03-05T03:59:06.268Z,5.43
2023-03-05T04:00:06.296Z,5.53
2023-03-05T04:01:06.268Z,5.48
2023-03-05T04:02:06.476Z,5.63
2023-03-05T04:03:06.250Z,5.82
2023-03-05T04:04:06.339Z,5.82
2023-03-05T04:05:06.253Z,5.91
2023-03-05T04:06:06.245Z,5.92
2023-03-05T04:07:06.243Z,5.78
2023-03-05T04:08:06.270Z,5.78
2023-03-05T04:09:06.224Z,5.73
2023-03-05T04:10:06.254Z,5.75
2023-03-05T04:11:06.234Z,5.75
2023-03-05T04:12:06.226Z,5.82
2023-03-05T04:13:06.212Z,5.91
2023-03-05T04:14:06.222Z,6.09
2023-03-05T04:15:06.190Z,6.00
2023-03-05T04:16:06.253Z,6.14
2023-03-05T04:17:06.193Z,6.10
2023-03-05T04:18:06.187Z,6.09
2023-03-05T04:19:06.170Z,6.03
2023-03-05T04:20:06.199Z,6.03
2023-03-05T04:21:06.152Z,5.98
2023-03-05T04:22:06.162Z,5.71
2023-03-05T04:23:06.213Z,5.67
2023-03-05T04:24:06.157Z,5.53
2023-03-05T04:25:06.146Z,5.56
2023-03-05T04:26:06.157Z,5.32
2023-03-05T04:27:06.118Z,5.46
2023-03-05T04:28:06.147Z,5.50
2023-03-05T04:29:06.135Z,5.63
2023-03-05T04:30:06.100Z,5.57
2023-03-05T04:31:06.129Z,5.67
2023-03-05T04:32:06.123Z,5.73
2023-03-05T04:33:06.099Z,5.66
2023-03-05T04:34:06.084Z,5.68
2023-03-05T04:35:06.105Z,5.75
2023-03-05T04:36:06.057Z,5.82
2023-03-05T04:37:06.049Z,5.75
2023-03-05T04:38:06.079Z,5.68
2023-03-05T04:39:06.064Z,5.78
2023-03-05T04:40:06.025Z,5.77
2023-03-05T04:41:06.053Z,5.59
2023-03-05T04:42:06.032Z,5.55
2023-03-05T04:43:06.025Z,5.49
2023-03-05T04:44:06.083Z,5.34
2023-03-05T04:45:06.006Z,5.48
2023-03-05T04:46:06.005Z,5.23
2023-03-05T04:47:06.034Z,5.07
2023-03-05T04:48:05.989Z,5.14
2023-03-05T04:49:05.986Z,5.12
2023-03-05T04:50:06.002Z,5.17
2023-03-05T04:51:05.963Z,5.30
2023-03-05T04:52:05.961Z,5.30
2023-03-05T04:53:05.989Z,5.13
2023-03-05T04:54:05.971Z,5.12
2023-03-05T04:55:05.953Z,5.22
2023-03-05T04:56:05.963Z,5.25
2023-03-05T04:57:05.940Z,5.27
2023-03-05T04:58:05.923Z,5.35
2023-03-05T04:59:05.967Z,5.25
2023-03-05T05:00:05.941Z,5.30
2023-03-05T05:01:06.714Z,5.45
2023-03-05T05:02:06.033Z,5.45
2023-03-05T05:03:05.972Z,5.60
2023-03-05T05:04:05.944Z,5.70
2023-03-05T05:05:05.889Z,5.57
2023-03-05T05:06:05.988Z,5.53
2023-03-05T05:07:05.883Z,5.45
2023-03-05T05:08:06.046Z,5.50
2023-03-05T05:09:05.857Z,5.46
2023-03-05T05:10:06.520Z,5.37
2023-03-05T05:11:05.858Z,5.31
2023-03-05T05:12:05.850Z,5.31
2023-03-05T05:13:06.002Z,5.25
2023-03-05T05:14:05.904Z,5.23
2023-03-05T05:15:05.941Z,5.14
2023-03-05T05:16:05.867Z,5.12
2023-03-05T05:17:05.865Z,5.16
2023-03-05T05:18:05.838Z,5.14
2023-03-05T05:19:05.870Z,5.07
2023-03-05T05:20:05.825Z,5.04
2023-03-05T05:21:05.797Z,5.09
2023-03-05T05:22:05.834Z,5.01
2023-03-05T05:23:05.814Z,4.75
2023-03-05T05:24:05.786Z,4.61
2023-03-05T05:25:05.806Z,4.54
2023-03-05T05:26:05.757Z,4.54
2023-03-05T05:27:05.764Z,4.46
2023-03-05T05:28:05.816Z,4.36
2023-03-05T05:29:05.776Z,4.39
2023-03-05T05:30:05.758Z,4.39
2023-03-05T05:31:05.777Z,4.46
2023-03-05T05:32:05.803Z,4.55
2023-03-05T05:33:05.745Z,4.57
2023-03-05T05:34:05.754Z,4.73
2023-03-05T05:35:05.733Z,4.70
2023-03-05T05:36:05.712Z,4.72
2023-03-05T05:37:05.737Z,4.75
2023-03-05T05:38:05.728Z,4.73
2023-03-05T05:39:05.701Z,4.73
2023-03-05T05:40:05.744Z,4.69
2023-03-05T05:41:05.682Z,4.75
2023-03-05T05:42:05.672Z,4.69
2023-03-05T05:43:05.730Z,4.59
2023-03-05T05:44:05.671Z,4.77
2023-03-05T05:45:05.685Z,4.79
2023-03-05T05:46:05.856Z,4.95
2023-03-05T05:47:05.660Z,4.95
2023-03-05T05:48:05.699Z,5.16
2023-03-05T05:49:05.701Z,5.14
2023-03-05T05:50:05.648Z,5.27
2023-03-05T05:51:05.617Z,5.16
2023-03-05T05:52:05.655Z,5.32
2023-03-05T05:53:05.629Z,5.16
2023-03-05T05:54:05.632Z,5.20
2023-03-05T05:55:05.692Z,5.19
2023-03-05T05:56:05.595Z,5.25
2023-03-05T05:57:05.594Z,5.31
2023-03-05T05:58:05.614Z,5.27
2023-03-05T05:59:05.636Z,5.28
2023-03-05T06:00:05.604Z,5.31
2023-03-05T06:01:05.651Z,5.43
2023-03-05T06:02:05.644Z,5.31
2023-03-05T06:03:05.639Z,5.56
2023-03-05T06:04:05.549Z,5.52
2023-03-05T06:05:05.596Z,5.57
2023-03-05T06:06:05.599Z,5.55
2023-03-05T06:07:05.533Z,5.46
2023-03-05T06:08:05.553Z,5.34
2023-03-05T06:09:05.528Z,5.46
2023-03-05T06:10:05.566Z,5.56
2023-03-05T06:11:05.565Z,5.55
2023-03-05T06:12:05.581Z,5.63
2023-03-05T06:13:05.498Z,5.74
2023-03-05T06:14:05.529Z,5.68
2023-03-05T06:15:05.510Z,5.56
2023-03-05T06:16:05.525Z,5.68
2023-03-05T06:17:05.523Z,5.63
2023-03-05T06:18:05.471Z,5.81
2023-03-05T06:19:05.471Z,5.86
2023-03-05T06:20:05.483Z,5.88
2023-03-05T06:21:05.478Z,5.91
2023-03-05T06:22:05.448Z,6.07
2023-03-05T06:23:05.464Z,6.11
2023-03-05T06:24:05.436Z,6.10
2023-03-05T06:25:05.440Z,6.09
2023-03-05T06:26:05.607Z,6.13
2023-03-05T06:27:05.419Z,6.21
2023-03-05T06:28:05.445Z,6.26
2023-03-05T06:29:05.437Z,6.19
2023-03-05T06:30:05.402Z,6.21
2023-03-05T06:31:05.453Z,6.21
2023-03-05T06:32:05.431Z,6.25
2023-03-05T06:33:05.386Z,6.13
2023-03-05T06:34:05.389Z,6.04
2023-03-05T06:35:05.418Z,5.89
2023-03-05T06:36:05.384Z,6.01
2023-03-05T06:37:05.373Z,5.96
2023-03-05T06:38:05.396Z,5.89
2023-03-05T06:39:05.342Z,6.00
2023-03-05T06:40:05.341Z,5.85
2023-03-05T06:41:05.360Z,5.91
2023-03-05T06:42:05.355Z,5.85
2023-03-05T06:43:06.243Z,5.77
2023-03-05T06:44:05.328Z,5.85
2023-03-05T06:45:05.322Z,5.83
2023-03-05T06:46:05.393Z,5.86
2023-03-05T06:47:06.324Z,5.67
2023-03-05T06:48:05.307Z,5.60
2023-03-05T06:49:05.326Z,5.43
2023-03-05T06:50:05.325Z,5.38
2023-03-05T06:51:05.293Z,5.23
2023-03-05T06:52:05.276Z,4.95
2023-03-05T06:53:05.268Z,4.83
2023-03-05T06:54:06.121Z,4.84
2023-03-05T06:55:05.290Z,4.84
2023-03-05T06:56:05.337Z,4.95
2023-03-05T06:57:05.279Z,5.12
2023-03-05T06:58:05.243Z,5.23
2023-03-05T06:59:05.277Z,5.25
2023-03-05T07:00:05.238Z,5.28
2023-03-05T07:01:05.276Z,5.28
2023-03-05T07:02:05.314Z,5.28
2023-03-05T07:03:05.211Z,5.43
2023-03-05T07:04:05.229Z,5.35
2023-03-05T07:05:05.214Z,5.34
2023-03-05T07:06:05.205Z,5.32
2023-03-05T07:07:05.233Z,5.41
2023-03-05T07:08:05.186Z,5.57
2023-03-05T07:09:05.465Z,5.66
2023-03-05T07:10:05.221Z,5.71
2023-03-05T07:11:05.179Z,5.73
2023-03-05T07:12:05.199Z,5.68
2023-03-05T07:13:05.168Z,5.66
2023-03-05T07:14:05.313Z,5.74
2023-03-05T07:15:05.146Z,5.81
2023-03-05T07:16:05.182Z,5.85
2023-03-05T07:17:05.132Z,5.96
2023-03-05T07:18:05.184Z,6.06
2023-03-05T07:19:05.158Z,6.13
2023-03-05T07:20:05.134Z,6.21
2023-03-05T07:21:05.211Z,6.29
2023-03-05T07:22:05.098Z,6.41
2023-03-05T07:23:05.181Z,6.48
2023-03-05T07:24:05.180Z,6.68
2023-03-05T07:25:05.112Z,6.58
2023-03-05T07:26:05.072Z,6.62
2023-03-05T07:27:05.105Z,6.69
2023-03-05T07:28:05.155Z,6.72
2023-03-05T07:29:05.158Z,6.84
2023-03-05T07:30:05.200Z,6.69
2023-03-05T07:31:05.122Z,6.44
2023-03-05T07:32:05.147Z,6.26
2023-03-05T07:33:05.067Z,6.41
2023-03-05T07:34:05.080Z,6.36
2023-03-05T07:35:05.023Z,6.32
2023-03-05T07:36:05.108Z,6.21
2023-03-05T07:37:05.014Z,6.21
2023-03-05T07:38:05.012Z,6.18
2023-03-05T07:39:05.059Z,6.29
2023-03-05T07:40:05.060Z,6.40
2023-03-05T07:41:04.985Z,6.50
2023-03-05T07:42:04.984Z,6.58
2023-03-05T07:43:04.987Z,6.73
2023-03-05T07:44:04.962Z,6.97
2023-03-05T07:45:04.992Z,7.05
2023-03-05T07:46:05.131Z,7.16
2023-03-05T07:47:04.934Z,7.26
2023-03-05T07:48:05.100Z,7.23
2023-03-05T07:49:04.948Z,7.01
2023-03-05T07:50:04.934Z,7.02
2023-03-05T07:51:04.939Z,6.76
2023-03-05T07:52:04.919Z,6.76
2023-03-05T07:53:04.933Z,6.81
2023-03-05T07:54:04.906Z,6.71
2023-03-05T07:55:04.906Z,6.86
2023-03-05T07:56:04.945Z,7.05
2023-03-05T07:57:04.943Z,7.12
2023-03-05T07:58:04.891Z,7.15
2023-03-05T07:59:04.898Z,6.98
2023-03-05T08:00:04.868Z,6.71
2023-03-05T08:01:04.866Z,6.51
2023-03-05T08:02:05.040Z,6.59
2023-03-05T08:03:04.880Z,6.48
2023-03-05T08:04:04.893Z,6.38
2023-03-05T08:05:05.518Z,6.47
2023-03-05T08:06:04.821Z,6.50
2023-03-05T08:07:04.842Z,6.47
2023-03-05T08:08:04.825Z,6.44
2023-03-05T08:09:04.814Z,6.40
2023-03-05T08:10:04.814Z,6.26
2023-03-05T08:11:04.821Z,6.41
2023-03-05T08:12:04.845Z,6.25
2023-03-05T08:13:04.784Z,6.38
2023-03-05T08:14:04.803Z,6.38
2023-03-05T08:15:04.800Z,6.36
2023-03-05T08:16:04.817Z,6.40
2023-03-05T08:17:04.762Z,6.33
2023-03-05T08:18:04.784Z,6.48
2023-03-05T08:19:04.754Z,6.54
2023-03-05T08:20:04.767Z,6.66
2023-03-05T08:21:04.750Z,6.68
2023-03-05T08:22:04.716Z,6.71
2023-03-05T08:23:04.734Z,6.81
2023-03-05T08:24:04.754Z,6.81
2023-03-05T08:25:04.748Z,6.81
2023-03-05T08:26:04.708Z,6.68
2023-03-05T08:27:04.740Z,6.81
2023-03-05T08:28:04.700Z,6.66
2023-03-05T08:29:04.687Z,6.56
2023-03-05T08:30:04.730Z,6.65
2023-03-05T08:31:04.686Z,6.76
2023-03-05T08:32:04.678Z,6.84
2023-03-05T08:33:04.718Z,6.99
2023-03-05T08:34:04.661Z,6.99
2023-03-05T08:35:04.661Z,6.81
2023-03-05T08:36:04.698Z,6.65
2023-03-05T08:37:13.499Z,6.73
2023-03-05T08:38:04.643Z,6.91
2023-03-05T08:39:04.641Z,7.01
2023-03-05T08:40:04.645Z,6.91
2023-03-05T08:41:04.628Z,6.72
2023-03-05T08:42:04.665Z,6.68
2023-03-05T08:43:04.618Z,6.87
2023-03-05T08:44:04.599Z,6.81
2023-03-05T08:45:04.635Z,6.90
2023-03-05T08:46:04.578Z,6.86
2023-03-05T08:47:04.586Z,6.73
2023-03-05T08:48:04.614Z,6.56
2023-03-05T08:49:04.577Z,6.53
2023-03-05T08:50:04.550Z,6.59
2023-03-05T08:51:04.584Z,6.65
2023-03-05T08:52:04.575Z,6.54
2023-03-05T08:53:04.672Z,6.22
2023-03-05T08:54:04.571Z,6.46
2023-03-05T08:55:04.530Z,6.53
2023-03-05T08:56:04.550Z,6.61
2023-03-05T08:57:04.543Z,6.30
2023-03-05T08:58:04.560Z,6.26
2023-03-05T08:59:04.512Z,6.62
2023-03-05T09:00:04.502Z,6.73
2023-03-05T09:01:04.560Z,6.91
2023-03-05T09:02:04.549Z,7.01
2023-03-05T09:03:04.498Z,7.38
2023-03-05T09:04:04.495Z,7.58
2023-03-05T09:05:04.500Z,8.02
2023-03-05T09:06:04.475Z,8.57
2023-03-05T09:07:04.485Z,9.05
2023-03-05T09:08:05.369Z,9.64
2023-03-05T09:09:04.474Z,9.70
2023-03-05T09:10:04.478Z,9.52
2023-03-05T09:11:04.430Z,9.31
2023-03-05T09:12:04.488Z,9.02
2023-03-05T09:13:05.106Z,9.05
2023-03-05T09:14:04.480Z,9.71
2023-03-05T09:15:04.430Z,10.28
2023-03-05T09:16:04.496Z,10.18
2023-03-05T09:17:04.495Z,10.33
2023-03-05T09:18:04.459Z,11.27
2023-03-05T09:19:04.428Z,11.68
2023-03-05T09:20:04.440Z,11.31
2023-03-05T09:21:04.404Z,10.70
2023-03-05T09:22:04.409Z,9.89
2023-03-05T09:23:04.420Z,9.34
2023-03-05T09:24:04.415Z,9.04
2023-03-05T09:25:04.461Z,8.87
2023-03-05T09:26:04.375Z,8.97
2023-03-05T09:27:04.365Z,8.99
2023-03-05T09:28:04.400Z,8.96
2023-03-05T09:29:04.343Z,8.86
2023-03-05T09:30:04.327Z,8.87
2023-03-05T09:31:04.341Z,9.21
2023-03-05T09:32:04.528Z,9.31
2023-03-05T09:33:04.450Z,9.50
2023-03-05T09:34:04.311Z,9.78
2023-03-05T09:35:04.315Z,9.82
2023-03-05T09:36:04.279Z,9.75
2023-03-05T09:37:04.321Z,9.52
2023-03-05T09:38:04.337Z,9.12
2023-03-05T09:39:04.274Z,8.73
2023-03-05T09:40:04.340Z,8.72
2023-03-05T09:41:04.272Z,8.63
2023-03-05T09:42:04.295Z,8.87
2023-03-05T09:43:04.249Z,8.33
2023-03-05T09:44:04.351Z,8.14
2023-03-05T09:45:04.259Z,8.20
2023-03-05T09:46:04.382Z,7.99
2023-03-05T09:47:04.253Z,7.77
2023-03-05T09:48:04.249Z,7.93
2023-03-05T09:49:04.347Z,7.71
2023-03-05T09:50:04.208Z,7.85
2023-03-05T09:51:04.197Z,7.20
2023-03-05T09:52:04.195Z,6.86
2023-03-05T09:53:04.250Z,6.77
2023-03-05T09:54:04.179Z,6.95
2023-03-05T09:55:04.212Z,7.01
2023-03-05T09:56:04.185Z,7.16
2023-03-05T09:57:04.227Z,7.27
2023-03-05T09:58:04.188Z,7.44
2023-03-05T09:59:04.235Z,7.34
2023-03-05T10:00:04.194Z,7.44
2023-03-05T10:01:04.154Z,7.40
2023-03-05T10:02:04.154Z,7.59
2023-03-05T10:03:04.295Z,7.53
2023-03-05T10:04:04.177Z,7.32
2023-03-05T10:05:04.225Z,7.07
2023-03-05T10:06:04.166Z,7.42
2023-03-05T10:07:04.116Z,7.84
2023-03-05T10:08:04.111Z,7.81
2023-03-05T10:09:04.098Z,7.62
2023-03-05T10:10:04.164Z,8.03
2023-03-05T10:11:04.074Z,7.92
2023-03-05T10:12:04.106Z,7.97
2023-03-05T10:13:04.071Z,8.53
2023-03-05T10:14:04.112Z,8.94
2023-03-05T10:15:04.063Z,9.20
2023-03-05T10:16:04.098Z,9.04
2023-03-05T10:17:04.046Z,9.24
2023-03-05T10:18:04.063Z,9.68
2023-03-05T10:19:04.580Z,9.58
2023-03-05T10:20:04.016Z,9.43
2023-03-05T10:21:04.053Z,8.87
2023-03-05T10:22:04.046Z,8.84
2023-03-05T10:23:04.052Z,8.71
2023-03-05T10:24:04.055Z,8.55
2023-03-05T10:25:04.016Z,8.32
2023-03-05T10:26:04.024Z,8.30
2023-03-05T10:27:04.044Z,7.84
2023-03-05T10:28:03.997Z,7.74
2023-03-05T10:29:03.992Z,7.75
2023-03-05T10:30:03.985Z,7.77
2023-03-05T10:31:03.977Z,7.53
2023-03-05T10:32:04.109Z,7.63
2023-03-05T10:33:04.016Z,7.52
2023-03-05T10:34:03.943Z,7.71
2023-03-05T10:35:03.951Z,7.79
2023-03-05T10:36:03.937Z,7.89
2023-03-05T10:37:03.963Z,8.18
2023-03-05T10:38:03.938Z,8.33
2023-03-05T10:39:03.970Z,8.22
2023-03-05T10:40:03.904Z,8.17
2023-03-05T10:41:03.937Z,8.15
2023-03-05T10:42:03.937Z,8.15
2023-03-05T10:43:03.902Z,8.18
2023-03-05T10:44:03.899Z,8.21
2023-03-05T10:45:03.912Z,8.21
2023-03-05T10:46:03.968Z,7.89
2023-03-05T10:47:03.872Z,8.10
2023-03-05T10:48:04.508Z,8.08
2023-03-05T10:49:03.851Z,8.00
2023-03-05T10:50:03.869Z,7.82
2023-03-05T10:51:03.850Z,7.75
2023-03-05T10:52:03.840Z,7.93
2023-03-05T10:53:03.872Z,7.97
2023-03-05T10:54:03.879Z,7.82
2023-03-05T10:55:03.855Z,7.69
2023-03-05T10:56:03.827Z,7.78
2023-03-05T10:57:03.832Z,7.87
2023-03-05T10:58:03.815Z,7.85
2023-03-05T10:59:03.839Z,7.81
2023-03-05T11:00:03.812Z,7.75
2023-03-05T11:01:03.803Z,7.58
2023-03-05T11:02:03.815Z,7.49
2023-03-05T11:03:03.786Z,7.42
2023-03-05T11:04:03.854Z,7.41
2023-03-05T11:05:05.262Z,7.22
2023-03-05T11:06:04.768Z,6.83
2023-03-05T11:07:03.758Z,6.54
2023-03-05T11:08:03.767Z,6.40
2023-03-05T11:09:03.759Z,6.58
2023-03-05T11:10:03.772Z,6.63
2023-03-05T11:11:04.182Z,6.84
2023-03-05T11:12:04.800Z,6.91
2023-03-05T11:13:03.712Z,7.07
2023-03-05T11:14:03.761Z,7.12
2023-03-05T11:15:03.738Z,7.17
2023-03-05T11:16:03.799Z,7.13
2023-03-05T11:17:03.678Z,7.13
2023-03-05T11:18:04.594Z,7.16
2023-03-05T11:19:03.788Z,6.94
2023-03-05T11:20:03.697Z,6.90
2023-03-05T11:21:03.675Z,6.90
2023-03-05T11:22:03.659Z,6.84
2023-03-05T11:23:03.656Z,6.69
2023-03-05T11:24:03.659Z,6.58
2023-03-05T11:25:03.655Z,6.14
2023-03-05T11:26:03.651Z,5.93
2023-03-05T11:27:03.614Z,6.01
2023-03-05T11:28:03.641Z,6.13
2023-03-05T11:29:03.622Z,6.32
2023-03-05T11:30:03.616Z,6.38
2023-03-05T11:31:03.638Z,6.46
2023-03-05T11:32:03.598Z,6.47
2023-03-05T11:33:03.598Z,6.36
2023-03-05T11:34:03.616Z,6.32
2023-03-05T11:35:03.583Z,6.33
2023-03-05T11:36:03.576Z,6.46
2023-03-05T11:37:03.602Z,6.43
2023-03-05T11:38:03.555Z,6.48
2023-03-05T11:39:03.605Z,6.44
2023-03-05T11:40:03.554Z,6.51
2023-03-05T11:41:04.539Z,6.53
2023-03-05T11:42:03.524Z,6.46
2023-03-05T11:43:03.560Z,6.33
2023-03-05T11:44:03.525Z,6.65
2023-03-05T11:45:03.531Z,6.40
2023-03-05T11:46:03.659Z,6.56
2023-03-05T11:47:03.514Z,6.40
2023-03-05T11:48:03.508Z,6.38
2023-03-05T11:49:03.514Z,6.41
2023-03-05T11:50:03.500Z,6.22
2023-03-05T11:51:03.524Z,6.36
2023-03-05T11:52:03.484Z,6.30
2023-03-05T11:53:03.497Z,6.43
2023-03-05T11:54:03.470Z,6.59
2023-03-05T11:55:03.487Z,6.51
2023-03-05T11:56:03.458Z,6.65
2023-03-05T11:57:03.471Z,6.72
2023-03-05T11:58:03.425Z,6.81
2023-03-05T11:59:03.431Z,7.15
2023-03-05T12:00:03.466Z,7.63
2023-03-05T12:01:03.445Z,7.97
2023-03-05T12:02:03.417Z,8.26
2023-03-05T12:03:03.436Z,8.60
2023-03-05T12:04:03.474Z,9.31
2023-03-05T12:05:03.447Z,9.15
2023-03-05T12:06:04.403Z,8.45
2023-03-05T12:07:03.388Z,8.26
2023-03-05T12:08:03.397Z,7.99
2023-03-05T12:09:03.378Z,7.74
2023-03-05T12:10:03.418Z,7.78
2023-03-05T12:11:03.399Z,7.81
2023-03-05T12:12:03.372Z,7.75
2023-03-05T12:13:03.368Z,8.03
2023-03-05T12:14:03.380Z,8.03
2023-03-05T12:15:03.359Z,8.00
2023-03-05T12:16:03.388Z,8.21
2023-03-05T12:17:03.361Z,8.30
2023-03-05T12:18:03.334Z,8.48
2023-03-05T12:19:03.328Z,8.62
2023-03-05T12:20:04.352Z,8.86
2023-03-05T12:21:03.343Z,8.76
2023-03-05T12:22:03.351Z,8.44
2023-03-05T12:23:03.305Z,8.37
2023-03-05T12:24:03.329Z,8.33
2023-03-05T12:25:03.297Z,8.45
2023-03-05T12:26:03.286Z,8.71
2023-03-05T12:27:03.283Z,8.63
2023-03-05T12:28:03.316Z,8.50
2023-03-05T12:29:03.302Z,8.28
2023-03-05T12:30:04.393Z,8.11
2023-03-05T12:31:03.308Z,8.28
2023-03-05T12:32:03.290Z,8.40
2023-03-05T12:33:03.277Z,8.40
2023-03-05T12:34:03.569Z,8.57
2023-03-05T12:35:03.241Z,8.48
2023-03-05T12:36:03.316Z,8.39
2023-03-05T12:37:03.243Z,8.54
2023-03-05T12:38:17.228Z,8.84
2023-03-05T12:39:04.216Z,8.60
2023-03-05T12:40:03.270Z,8.57
2023-03-05T12:41:03.196Z,8.47
2023-03-05T12:42:03.204Z,8.29
2023-03-05T12:43:03.201Z,8.25
2023-03-05T12:44:03.195Z,8.18
2023-03-05T12:45:03.214Z,8.44
2023-03-05T12:46:03.165Z,8.32
2023-03-05T12:47:03.183Z,8.14
2023-03-05T12:48:03.168Z,7.94
2023-03-05T12:49:03.159Z,8.17
2023-03-05T12:50:03.173Z,8.60
2023-03-05T12:51:03.188Z,9.20
2023-03-05T12:52:03.136Z,9.42
2023-03-05T12:53:03.128Z,9.38
2023-03-05T12:54:03.156Z,9.27
2023-03-05T12:55:03.121Z,9.23
2023-03-05T12:56:03.224Z,8.78
2023-03-05T12:57:03.112Z,8.60
2023-03-05T12:58:03.109Z,8.51
2023-03-05T12:59:03.098Z,8.50
2023-03-05T13:00:03.102Z,8.60
2023-03-05T13:01:03.187Z,8.32
2023-03-05T13:02:03.082Z,8.50
2023-03-05T13:03:03.111Z,8.39
2023-03-05T13:04:03.173Z,8.17
2023-03-05T13:05:03.072Z,7.99
2023-03-05T13:06:03.075Z,7.93
2023-03-05T13:07:03.064Z,7.69
2023-03-05T13:08:03.060Z,7.60
2023-03-05T13:09:03.047Z,7.90
2023-03-05T13:10:03.029Z,7.85
2023-03-05T13:11:03.023Z,7.90
2023-03-05T13:12:03.133Z,7.81
2023-03-05T13:13:03.008Z,7.96
2023-03-05T13:14:02.998Z,7.94
2023-03-05T13:15:03.053Z,8.04
2023-03-05T13:16:03.024Z,8.04
2023-03-05T13:17:03.020Z,7.96
2023-03-05T13:18:02.999Z,8.10